ilmateenistus.ee keskkonnaagentuur.ee
EETN Tallinn
FTEO31 EETN 012300
TAF EETN 012330Z 0200/0224 20006KT 9999 SCT030 TEMPO 0200/0210 2000
    SHRA BKN003 SCT013CB OVC015 BECMG 0206/0208 25016KT BECMG 0210/0212
    BKN015 BECMG 0212/0214 23020G30KT TEMPO 0218/0224 4000 SHRA BKN007
    SCT025CB=

METAR EETN 020350Z 22012KT 9999 BKN009 03/02 Q0992 R08/290195 NOSIG=
Tallinn
EEKA Kärdla
METAR EEKA 020350Z NIL=
Kärdla
EEKE Kuressaare
METAR EEKE 020350Z AUTO 24007KT 190V280 9999NDV NSC 05/03 Q0994=
Kuressaare
EEPU Pärnu
METAR EEPU 020350Z NIL=
Pärnu
EETU Tartu
METAR EETU 020350Z AUTO 21008KT 9999 DZ OVC007/// 02/02 Q0995=
Tartu
EEEI Ämari
SPECI EEEI 020352Z AUTO 19010KT 9999 -RA FEW010 BKN012 OVC039 03/02 Q0992 R24/190095=
Ämari